createdAt,value
2022-09-27T00:03:30.045Z,19.32
2022-09-27T00:07:07.124Z,19.32
2022-09-27T00:10:44.028Z,19.29
2022-09-27T00:14:21.521Z,19.26
2022-09-27T00:17:58.267Z,19.21
2022-09-27T00:21:37.258Z,19.17
2022-09-27T00:25:16.394Z,19.16
2022-09-27T00:28:53.810Z,19.15
2022-09-27T00:32:31.881Z,19.13
2022-09-27T00:36:10.377Z,19.16
2022-09-27T00:39:48.231Z,19.16
2022-09-27T00:43:26.203Z,19.17
2022-09-27T00:47:20.149Z,19.20
2022-09-27T00:51:04.345Z,19.21
2022-09-27T00:54:47.783Z,19.22
2022-09-27T00:58:30.367Z,19.25
2022-09-27T01:02:08.237Z,19.26
2022-09-27T01:05:48.608Z,19.28
2022-09-27T01:09:26.472Z,19.28
2022-09-27T01:13:23.849Z,19.29
2022-09-27T01:17:43.607Z,19.29
2022-09-27T01:21:43.169Z,19.29
2022-09-27T01:25:26.152Z,19.29
2022-09-27T01:29:21.679Z,19.29
2022-09-27T01:33:01.946Z,19.27
2022-09-27T01:37:01.919Z,19.25
2022-09-27T01:40:49.464Z,19.24
2022-09-27T01:44:51.622Z,19.25
2022-09-27T01:48:37.242Z,19.25
2022-09-27T01:52:21.310Z,19.18
2022-09-27T01:56:03.985Z,19.14
2022-09-27T01:59:59.319Z,19.12
2022-09-27T02:03:40.860Z,19.11
2022-09-27T02:07:40.641Z,19.11
2022-09-27T02:11:17.637Z,19.10
2022-09-27T02:15:03.039Z,19.10
2022-09-27T02:18:52.247Z,19.12
2022-09-27T02:22:35.131Z,19.10
2022-09-27T02:26:22.927Z,19.05
2022-09-27T02:30:12.940Z,19.03
2022-09-27T02:33:58.215Z,19.01
2022-09-27T02:37:36.071Z,18.99
2022-09-27T02:41:15.478Z,19.00
2022-09-27T02:44:53.031Z,18.98
2022-09-27T02:48:37.141Z,18.96
2022-09-27T02:52:32.712Z,18.97
2022-09-27T02:56:57.578Z,18.97
2022-09-27T03:00:47.800Z,18.96
2022-09-27T03:04:46.445Z,18.94
2022-09-27T03:08:24.412Z,18.94
2022-09-27T03:12:01.617Z,18.94
2022-09-27T03:15:38.717Z,18.93
2022-09-27T03:19:15.968Z,18.92
2022-09-27T03:22:53.581Z,18.92
2022-09-27T03:26:30.886Z,18.90
2022-09-27T03:30:11.417Z,18.91
2022-09-27T03:33:50.400Z,18.91
2022-09-27T03:37:27.961Z,18.92
2022-09-27T03:41:05.419Z,18.93
2022-09-27T03:44:43.596Z,18.91
2022-09-27T03:48:39.678Z,18.91
2022-09-27T03:51:57.690Z,18.90
2022-09-27T03:55:35.560Z,18.89
2022-09-27T03:59:12.716Z,18.86
2022-09-27T04:02:50.826Z,18.85
2022-09-27T04:06:28.416Z,18.83
2022-09-27T04:10:06.502Z,18.84
2022-09-27T04:13:45.925Z,18.81
2022-09-27T04:17:24.711Z,18.77
2022-09-27T04:21:02.377Z,18.72
2022-09-27T04:24:40.036Z,18.67
2022-09-27T04:28:17.591Z,18.65
2022-09-27T04:31:55.461Z,18.64
2022-09-27T04:35:32.716Z,18.63
2022-09-27T04:39:11.237Z,18.62
2022-09-27T04:42:49.703Z,18.61
2022-09-27T04:46:30.351Z,18.58
2022-09-27T04:50:08.798Z,18.55
2022-09-27T04:53:47.703Z,18.53
2022-09-27T04:57:26.260Z,18.51
2022-09-27T05:01:04.368Z,18.49
2022-09-27T05:04:41.379Z,18.47
2022-09-27T05:08:19.264Z,18.44
2022-09-27T05:11:58.033Z,18.42
2022-09-27T05:15:35.093Z,18.39
2022-09-27T05:19:13.257Z,18.38
2022-09-27T05:22:50.258Z,18.35
2022-09-27T05:26:27.154Z,18.33
2022-09-27T05:30:05.735Z,18.33
2022-09-27T05:33:44.729Z,18.34
2022-09-27T05:37:22.464Z,18.33
2022-09-27T05:40:59.817Z,18.32
2022-09-27T05:44:37.128Z,18.27
2022-09-27T05:48:17.421Z,18.26
2022-09-27T05:51:55.190Z,18.25
2022-09-27T05:55:32.851Z,18.25
2022-09-27T05:59:10.721Z,18.28
2022-09-27T06:02:54.267Z,18.30
2022-09-27T06:06:32.659Z,18.31
2022-09-27T06:10:10.253Z,18.32
2022-09-27T06:13:48.937Z,18.30
2022-09-27T06:17:27.224Z,18.30
2022-09-27T06:21:05.897Z,18.31
2022-09-27T06:24:45.501Z,18.30
2022-09-27T06:28:22.762Z,18.32
2022-09-27T06:32:00.100Z,18.37
2022-09-27T06:35:38.046Z,18.37
2022-09-27T06:39:35.643Z,18.45
2022-09-27T06:42:52.079Z,18.48
2022-09-27T06:46:30.091Z,18.55
2022-09-27T06:50:08.121Z,18.64
2022-09-27T06:53:45.176Z,19.08
2022-09-27T06:57:22.436Z,19.98
2022-09-27T07:00:59.487Z,20.10
2022-09-27T07:04:36.520Z,20.05
2022-09-27T07:08:36.210Z,19.97
2022-09-27T07:11:50.282Z,19.94
2022-09-27T07:15:28.693Z,19.91
2022-09-27T07:19:05.936Z,19.93
2022-09-27T07:22:43.421Z,19.96
2022-09-27T07:26:20.241Z,20.00
2022-09-27T07:29:57.906Z,20.08
2022-09-27T07:33:37.174Z,20.15
2022-09-27T07:37:18.141Z,20.23
2022-09-27T07:40:55.775Z,20.34
2022-09-27T07:44:33.566Z,20.49
2022-09-27T07:48:16.939Z,20.62
2022-09-27T07:51:55.031Z,20.77
2022-09-27T07:55:34.855Z,20.90
2022-09-27T07:59:12.782Z,21.02
2022-09-27T08:02:50.171Z,21.16
2022-09-27T08:06:27.632Z,21.27
2022-09-27T08:10:05.891Z,21.41
2022-09-27T08:13:43.466Z,21.56
2022-09-27T08:17:20.623Z,21.79
2022-09-27T08:20:58.890Z,21.99
2022-09-27T08:24:36.660Z,22.12
2022-09-27T08:28:14.015Z,22.23
2022-09-27T08:31:52.150Z,22.37
2022-09-27T08:35:33.060Z,22.56
2022-09-27T08:39:11.777Z,22.79
2022-09-27T08:42:56.695Z,22.98
2022-09-27T08:46:53.491Z,23.17
2022-09-27T08:50:40.063Z,23.45
2022-09-27T08:54:24.988Z,23.64
2022-09-27T08:58:04.211Z,23.87
2022-09-27T09:01:43.661Z,24.08
2022-09-27T09:05:29.515Z,24.30
2022-09-27T09:09:24.038Z,24.54
2022-09-27T09:13:13.046Z,24.76
2022-09-27T09:17:09.595Z,24.99
2022-09-27T09:20:46.502Z,25.14
2022-09-27T09:24:39.337Z,25.23
2022-09-27T09:28:35.374Z,25.31
2022-09-27T09:32:33.210Z,25.47
2022-09-27T09:36:37.671Z,25.59
2022-09-27T09:40:18.134Z,25.77
2022-09-27T09:44:19.097Z,25.81
2022-09-27T09:48:08.862Z,25.89
2022-09-27T09:52:08.012Z,26.00
2022-09-27T09:55:55.827Z,26.10
2022-09-27T10:00:05.287Z,26.13
2022-09-27T10:03:42.625Z,26.33
2022-09-27T10:07:23.046Z,26.45
2022-09-27T10:11:01.022Z,26.58
2022-09-27T10:14:38.911Z,26.76
2022-09-27T10:18:20.007Z,26.92
2022-09-27T10:22:14.443Z,27.07
2022-09-27T10:25:58.656Z,27.19
2022-09-27T10:29:38.435Z,27.26
2022-09-27T10:33:18.424Z,27.31
2022-09-27T10:37:15.386Z,27.42
2022-09-27T10:40:55.520Z,27.55
2022-09-27T10:44:33.598Z,27.87
2022-09-27T10:48:20.610Z,28.09
2022-09-27T10:52:15.425Z,28.16
2022-09-27T10:55:54.755Z,28.20
2022-09-27T10:59:37.078Z,28.37
2022-09-27T11:03:17.061Z,28.53
2022-09-27T11:07:17.714Z,28.63
2022-09-27T11:11:24.435Z,28.74
2022-09-27T11:15:05.421Z,28.87
2022-09-27T11:19:01.618Z,29.09
2022-09-27T11:22:51.377Z,29.29
2022-09-27T11:26:35.937Z,29.46
2022-09-27T11:30:21.750Z,29.62
2022-09-27T11:34:32.100Z,29.81
2022-09-27T11:38:52.595Z,30.06
2022-09-27T11:42:44.102Z,30.32
2022-09-27T11:46:41.604Z,30.56
2022-09-27T11:50:32.074Z,30.86
2022-09-27T11:54:54.829Z,31.08
2022-09-27T11:58:41.740Z,31.36
2022-09-27T12:02:53.302Z,31.51
2022-09-27T12:06:56.313Z,31.69
2022-09-27T12:10:14.324Z,31.86
2022-09-27T12:13:55.977Z,32.05
2022-09-27T12:17:41.798Z,32.23
2022-09-27T12:21:20.502Z,32.45
2022-09-27T12:24:59.198Z,32.51
2022-09-27T12:28:39.470Z,32.42
2022-09-27T12:32:25.710Z,32.42
2022-09-27T12:36:09.472Z,32.57
2022-09-27T12:40:06.499Z,32.80
2022-09-27T12:43:49.568Z,33.20
2022-09-27T12:48:01.642Z,33.40
2022-09-27T12:51:49.691Z,33.40
2022-09-27T12:55:56.787Z,33.28
2022-09-27T12:59:52.130Z,33.23
2022-09-27T13:04:26.821Z,33.15
2022-09-27T13:08:20.803Z,33.00
2022-09-27T13:12:07.400Z,32.83
2022-09-27T13:15:46.737Z,32.71
2022-09-27T13:19:53.408Z,32.57
2022-09-27T13:23:34.473Z,32.39
2022-09-27T13:27:35.905Z,32.29
2022-09-27T13:31:16.205Z,32.41
2022-09-27T13:34:55.579Z,32.41
2022-09-27T13:38:35.387Z,32.38
2022-09-27T13:42:40.530Z,32.42
2022-09-27T13:46:24.386Z,32.45
2022-09-27T13:50:32.208Z,32.55
2022-09-27T13:54:50.725Z,32.70
2022-09-27T13:58:39.749Z,32.76
2022-09-27T14:02:25.259Z,32.80
2022-09-27T14:06:08.743Z,32.87
2022-09-27T14:09:52.103Z,32.88
2022-09-27T14:13:32.806Z,32.95
2022-09-27T14:17:10.530Z,32.91
2022-09-27T14:20:52.412Z,32.94
2022-09-27T14:24:43.894Z,32.90
2022-09-27T14:28:31.361Z,32.85
2022-09-27T14:32:19.188Z,32.99
2022-09-27T14:35:56.265Z,33.07
2022-09-27T14:39:35.937Z,33.07
2022-09-27T14:43:18.949Z,33.03
2022-09-27T14:47:11.272Z,33.02
2022-09-27T14:51:17.393Z,33.00
2022-09-27T14:55:20.466Z,33.05
2022-09-27T14:59:11.167Z,32.89
2022-09-27T15:02:54.004Z,32.88
2022-09-27T15:06:32.239Z,32.95
2022-09-27T15:10:20.102Z,32.99
2022-09-27T15:13:58.386Z,32.87
2022-09-27T15:17:43.724Z,32.80
2022-09-27T15:21:44.785Z,32.66
2022-09-27T15:25:33.149Z,32.42
2022-09-27T15:29:22.349Z,32.34
2022-09-27T15:32:59.584Z,32.27
2022-09-27T15:36:51.630Z,32.13
2022-09-27T15:40:43.575Z,31.98
2022-09-27T15:44:51.288Z,31.94
2022-09-27T15:48:32.484Z,31.88
2022-09-27T15:52:41.274Z,31.91
2022-09-27T15:56:18.574Z,31.96
2022-09-27T15:59:55.890Z,31.98
2022-09-27T16:03:36.168Z,31.91
2022-09-27T16:07:16.699Z,31.81
2022-09-27T16:10:57.333Z,31.78
2022-09-27T16:14:34.984Z,31.76
2022-09-27T16:18:14.153Z,31.72
2022-09-27T16:21:53.021Z,31.58
2022-09-27T16:25:31.464Z,31.48
2022-09-27T16:29:14.599Z,31.40
2022-09-27T16:32:53.060Z,31.26
2022-09-27T16:36:31.332Z,31.24
2022-09-27T16:40:11.075Z,31.15
2022-09-27T16:43:55.050Z,31.06
2022-09-27T16:47:26.521Z,30.97
2022-09-27T16:51:12.952Z,30.80
2022-09-27T16:54:50.032Z,30.56
2022-09-27T16:58:29.782Z,30.30
2022-09-27T17:02:10.631Z,29.85
2022-09-27T17:05:48.143Z,29.41
2022-09-27T17:09:27.069Z,29.12
2022-09-27T17:13:04.913Z,28.85
2022-09-27T17:16:45.277Z,28.58
2022-09-27T17:20:22.374Z,28.36
2022-09-27T17:24:00.243Z,28.16
2022-09-27T17:27:42.651Z,27.95
2022-09-27T17:31:18.265Z,27.69
2022-09-27T17:34:57.943Z,27.41
2022-09-27T17:38:37.010Z,27.21
2022-09-27T17:42:20.410Z,27.04
2022-09-27T17:45:52.307Z,26.90
2022-09-27T17:50:05.722Z,26.82
2022-09-27T17:53:11.734Z,26.74
2022-09-27T17:56:47.444Z,26.64
2022-09-27T18:00:25.904Z,26.53
2022-09-27T18:04:10.465Z,26.46
2022-09-27T18:07:42.536Z,26.39
2022-09-27T18:11:27.299Z,26.31
2022-09-27T18:15:05.183Z,26.26
2022-09-27T18:18:46.198Z,26.18
2022-09-27T18:22:26.234Z,26.13
2022-09-27T18:26:05.261Z,26.09
2022-09-27T18:29:42.881Z,26.04
2022-09-27T18:33:23.154Z,26.00
2022-09-27T18:37:00.743Z,25.97
2022-09-27T18:40:56.109Z,25.92
2022-09-27T18:44:17.889Z,25.89
2022-09-27T18:48:02.256Z,25.82
2022-09-27T18:51:34.724Z,25.75
2022-09-27T18:55:24.619Z,25.70
2022-09-27T18:58:50.445Z,25.64
2022-09-27T19:02:27.836Z,25.58
2022-09-27T19:06:08.247Z,25.53
2022-09-27T19:09:51.532Z,25.45
2022-09-27T19:13:28.899Z,25.41
2022-09-27T19:17:30.792Z,25.33
2022-09-27T19:20:46.710Z,25.25
2022-09-27T19:24:24.241Z,25.18
2022-09-27T19:28:09.771Z,25.13
2022-09-27T19:31:38.789Z,25.10
2022-09-27T19:35:18.059Z,25.09
2022-09-27T19:38:56.050Z,25.08
2022-09-27T19:42:33.571Z,25.08
2022-09-27T19:46:14.238Z,25.06
2022-09-27T19:49:57.181Z,25.07
2022-09-27T19:53:38.602Z,25.07
2022-09-27T19:57:14.087Z,25.07
2022-09-27T20:01:07.111Z,25.06
2022-09-27T20:04:27.926Z,25.05
2022-09-27T20:08:10.827Z,25.04
2022-09-27T20:11:33.735Z,25.00
2022-09-27T20:15:10.953Z,24.98
2022-09-27T20:18:54.259Z,24.94
2022-09-27T20:22:32.579Z,24.89
2022-09-27T20:26:14.937Z,24.85
2022-09-27T20:30:13.858Z,24.83
2022-09-27T20:33:30.848Z,24.80
2022-09-27T20:37:09.269Z,24.78
2022-09-27T20:40:54.696Z,24.77
2022-09-27T20:44:31.946Z,24.71
2022-09-27T20:48:09.219Z,24.67
2022-09-27T20:51:47.686Z,24.62
2022-09-27T20:55:25.414Z,24.57
2022-09-27T20:59:12.729Z,24.56
2022-09-27T21:02:54.253Z,24.50
2022-09-27T21:06:33.191Z,24.46
2022-09-27T21:10:11.238Z,24.39
2022-09-27T21:13:49.948Z,24.33
2022-09-27T21:17:31.141Z,24.28
2022-09-27T21:21:09.854Z,24.24
2022-09-27T21:24:48.960Z,24.21
2022-09-27T21:28:30.963Z,24.18
2022-09-27T21:32:11.969Z,24.12
2022-09-27T21:35:50.312Z,24.06
2022-09-27T21:39:27.157Z,23.99
2022-09-27T21:43:05.028Z,23.95
2022-09-27T21:46:45.053Z,23.91
2022-09-27T21:50:22.158Z,23.85
2022-09-27T21:54:01.712Z,23.84
2022-09-27T21:57:40.067Z,23.79
2022-09-27T22:01:26.329Z,23.75
2022-09-27T22:05:07.251Z,23.68
2022-09-27T22:08:50.916Z,23.65
2022-09-27T22:12:31.214Z,23.59
2022-09-27T22:16:11.959Z,23.57
2022-09-27T22:19:50.831Z,23.57
2022-09-27T22:23:28.291Z,23.56
2022-09-27T22:27:05.441Z,23.53
2022-09-27T22:30:42.625Z,23.52
2022-09-27T22:34:21.906Z,23.50
2022-09-27T22:37:59.408Z,23.49
2022-09-27T22:41:36.611Z,23.44
2022-09-27T22:45:14.064Z,23.43
2022-09-27T22:48:52.757Z,23.45
2022-09-27T22:52:31.944Z,23.45
2022-09-27T22:56:13.875Z,23.46
2022-09-27T22:59:51.592Z,23.45
2022-09-27T23:03:28.727Z,23.43
2022-09-27T23:07:07.411Z,23.41
2022-09-27T23:10:45.370Z,23.39
2022-09-27T23:14:22.695Z,23.35
2022-09-27T23:18:01.451Z,23.30
2022-09-27T23:21:38.759Z,23.28
2022-09-27T23:25:16.812Z,23.26
2022-09-27T23:29:02.395Z,23.24
2022-09-27T23:32:42.128Z,23.21
2022-09-27T23:36:24.372Z,23.19
2022-09-27T23:40:02.546Z,23.15
2022-09-27T23:43:40.058Z,23.13
2022-09-27T23:47:17.371Z,23.13
2022-09-27T23:50:56.452Z,23.13
2022-09-27T23:54:34.408Z,23.08
2022-09-27T23:58:11.290Z,23.07
